sensor_id;sensor_type;location;lat;lon;timestamp;P1;P2;P0
69238;PMS5003;56349;51.816;-0.026;2023-07-24T00:00:54;4;4;
69238;PMS5003;56349;51.816;-0.026;2023-07-24T00:03:20;6;6;
69238;PMS5003;56349;51.816;-0.026;2023-07-24T00:05:46;5;4;
69238;PMS5003;56349;51.816;-0.026;2023-07-24T00:08:12;8;6;
69238;PMS5003;56349;51.816;-0.026;2023-07-24T00:10:38;5;5;
69238;PMS5003;56349;51.816;-0.026;2023-07-24T00:13:03;5;5;
69238;PMS5003;56349;51.816;-0.026;2023-07-24T00:15:29;6;6;
69238;PMS5003;56349;51.816;-0.026;2023-07-24T00:17:55;4;4;
69238;PMS5003;56349;51.816;-0.026;2023-07-24T00:20:22;4;4;
69238;PMS5003;56349;51.816;-0.026;2023-07-24T00:22:47;3;3;
69238;PMS5003;56349;51.816;-0.026;2023-07-24T00:25:13;4;4;
69238;PMS5003;56349;51.816;-0.026;2023-07-24T00:27:39;4;4;
69238;PMS5003;56349;51.816;-0.026;2023-07-24T00:30:05;5;4;
69238;PMS5003;56349;51.816;-0.026;2023-07-24T00:32:30;5;4;
69238;PMS5003;56349;51.816;-0.026;2023-07-24T00:34:56;4;4;
69238;PMS5003;56349;51.816;-0.026;2023-07-24T00:37:22;3;3;
69238;PMS5003;56349;51.816;-0.026;2023-07-24T00:39:48;7;4;
69238;PMS5003;56349;51.816;-0.026;2023-07-24T00:42:14;4;4;
69238;PMS5003;56349;51.816;-0.026;2023-07-24T00:44:40;5;5;
69238;PMS5003;56349;51.816;-0.026;2023-07-24T00:47:06;5;5;
69238;PMS5003;56349;51.816;-0.026;2023-07-24T00:49:32;6;6;
69238;PMS5003;56349;51.816;-0.026;2023-07-24T00:51:57;5;5;
69238;PMS5003;56349;51.816;-0.026;2023-07-24T00:54:23;7;6;
69238;PMS5003;56349;51.816;-0.026;2023-07-24T00:56:48;3;3;
69238;PMS5003;56349;51.816;-0.026;2023-07-24T00:59:14;5;5;
69238;PMS5003;56349;51.816;-0.026;2023-07-24T01:01:39;4;4;
69238;PMS5003;56349;51.816;-0.026;2023-07-24T01:04:05;5;5;
69238;PMS5003;56349;51.816;-0.026;2023-07-24T01:06:31;5;5;
69238;PMS5003;56349;51.816;-0.026;2023-07-24T01:08:57;8;6;
69238;PMS5003;56349;51.816;-0.026;2023-07-24T01:11:24;4;3;
69238;PMS5003;56349;51.816;-0.026;2023-07-24T01:13:51;4;4;
69238;PMS5003;56349;51.816;-0.026;2023-07-24T01:16:16;4;4;
69238;PMS5003;56349;51.816;-0.026;2023-07-24T01:18:40;5;5;
69238;PMS5003;56349;51.816;-0.026;2023-07-24T01:21:07;4;4;
69238;PMS5003;56349;51.816;-0.026;2023-07-24T01:23:35;3;3;
69238;PMS5003;56349;51.816;-0.026;2023-07-24T01:28:22;5;5;
69238;PMS5003;56349;51.816;-0.026;2023-07-24T01:30:47;3;2;
69238;PMS5003;56349;51.816;-0.026;2023-07-24T01:33:12;4;4;
69238;PMS5003;56349;51.816;-0.026;2023-07-24T01:35:38;4;3;
69238;PMS5003;56349;51.816;-0.026;2023-07-24T01:38:03;4;4;
69238;PMS5003;56349;51.816;-0.026;2023-07-24T01:40:28;5;4;
69238;PMS5003;56349;51.816;-0.026;2023-07-24T01:42:54;3;3;
69238;PMS5003;56349;51.816;-0.026;2023-07-24T01:45:20;4;4;
69238;PMS5003;56349;51.816;-0.026;2023-07-24T01:47:46;4;4;
69238;PMS5003;56349;51.816;-0.026;2023-07-24T01:50:12;5;5;
69238;PMS5003;56349;51.816;-0.026;2023-07-24T01:52:38;4;4;
69238;PMS5003;56349;51.816;-0.026;2023-07-24T01:55:05;4;4;
69238;PMS5003;56349;51.816;-0.026;2023-07-24T01:57:30;4;4;
69238;PMS5003;56349;51.816;-0.026;2023-07-24T01:59:56;3;3;
69238;PMS5003;56349;51.816;-0.026;2023-07-24T02:02:22;2;2;
69238;PMS5003;56349;51.816;-0.026;2023-07-24T02:04:48;1;0;
69238;PMS5003;56349;51.816;-0.026;2023-07-24T02:07:14;2;2;
69238;PMS5003;56349;51.816;-0.026;2023-07-24T02:09:40;1;1;
69238;PMS5003;56349;51.816;-0.026;2023-07-24T02:12:06;3;3;
69238;PMS5003;56349;51.816;-0.026;2023-07-24T02:14:31;4;4;
69238;PMS5003;56349;51.816;-0.026;2023-07-24T02:16:57;3;3;
69238;PMS5003;56349;51.816;-0.026;2023-07-24T02:19:23;3;3;
69238;PMS5003;56349;51.816;-0.026;2023-07-24T02:21:48;2;2;
69238;PMS5003;56349;51.816;-0.026;2023-07-24T02:24:14;2;2;
69238;PMS5003;56349;51.816;-0.026;2023-07-24T02:26:40;3;3;
69238;PMS5003;56349;51.816;-0.026;2023-07-24T02:29:07;2;2;
69238;PMS5003;56349;51.816;-0.026;2023-07-24T02:31:32;3;3;
69238;PMS5003;56349;51.816;-0.026;2023-07-24T02:33:57;3;3;
69238;PMS5003;56349;51.816;-0.026;2023-07-24T02:36:22;4;4;
69238;PMS5003;56349;51.816;-0.026;2023-07-24T02:38:47;3;2;
69238;PMS5003;56349;51.816;-0.026;2023-07-24T02:41:12;4;3;
69238;PMS5003;56349;51.816;-0.026;2023-07-24T02:43:38;3;3;
69238;PMS5003;56349;51.816;-0.026;2023-07-24T02:46:04;2;2;
69238;PMS5003;56349;51.816;-0.026;2023-07-24T02:48:30;3;3;
69238;PMS5003;56349;51.816;-0.026;2023-07-24T02:50:56;3;3;
69238;PMS5003;56349;51.816;-0.026;2023-07-24T02:53:22;2;2;
69238;PMS5003;56349;51.816;-0.026;2023-07-24T02:55:49;3;3;
69238;PMS5003;56349;51.816;-0.026;2023-07-24T02:58:15;5;4;
69238;PMS5003;56349;51.816;-0.026;2023-07-24T03:00:41;4;3;
69238;PMS5003;56349;51.816;-0.026;2023-07-24T03:03:07;2;2;
69238;PMS5003;56349;51.816;-0.026;2023-07-24T03:05:33;3;3;
69238;PMS5003;56349;51.816;-0.026;2023-07-24T03:07:58;5;5;
69238;PMS5003;56349;51.816;-0.026;2023-07-24T03:10:25;3;3;
69238;PMS5003;56349;51.816;-0.026;2023-07-24T03:12:51;3;2;
69238;PMS5003;56349;51.816;-0.026;2023-07-24T03:15:17;5;4;
69238;PMS5003;56349;51.816;-0.026;2023-07-24T03:17:42;3;3;
69238;PMS5003;56349;51.816;-0.026;2023-07-24T03:20:08;2;2;
69238;PMS5003;56349;51.816;-0.026;2023-07-24T03:22:34;3;3;
69238;PMS5003;56349;51.816;-0.026;2023-07-24T03:25:00;2;2;
69238;PMS5003;56349;51.816;-0.026;2023-07-24T03:27:25;3;3;
69238;PMS5003;56349;51.816;-0.026;2023-07-24T03:29:51;5;4;
69238;PMS5003;56349;51.816;-0.026;2023-07-24T03:32:17;2;2;
69238;PMS5003;56349;51.816;-0.026;2023-07-24T03:34:44;3;3;
69238;PMS5003;56349;51.816;-0.026;2023-07-24T03:37:09;3;3;
69238;PMS5003;56349;51.816;-0.026;2023-07-24T03:39:35;3;3;
69238;PMS5003;56349;51.816;-0.026;2023-07-24T03:42:01;5;3;
69238;PMS5003;56349;51.816;-0.026;2023-07-24T03:44:26;4;4;
69238;PMS5003;56349;51.816;-0.026;2023-07-24T03:46:52;3;3;
69238;PMS5003;56349;51.816;-0.026;2023-07-24T03:49:18;4;3;
69238;PMS5003;56349;51.816;-0.026;2023-07-24T03:51:44;2;2;
69238;PMS5003;56349;51.816;-0.026;2023-07-24T03:54:11;2;2;
69238;PMS5003;56349;51.816;-0.026;2023-07-24T03:56:37;2;2;
69238;PMS5003;56349;51.816;-0.026;2023-07-24T03:59:03;6;5;
69238;PMS5003;56349;51.816;-0.026;2023-07-24T04:01:28;4;4;
69238;PMS5003;56349;51.816;-0.026;2023-07-24T04:03:54;3;3;
69238;PMS5003;56349;51.816;-0.026;2023-07-24T04:06:20;2;2;
69238;PMS5003;56349;51.816;-0.026;2023-07-24T04:08:46;4;4;
69238;PMS5003;56349;51.816;-0.026;2023-07-24T04:11:12;3;3;
69238;PMS5003;56349;51.816;-0.026;2023-07-24T04:13:38;3;3;
69238;PMS5003;56349;51.816;-0.026;2023-07-24T04:16:04;3;3;
69238;PMS5003;56349;51.816;-0.026;2023-07-24T04:18:30;2;1;
69238;PMS5003;56349;51.816;-0.026;2023-07-24T04:20:57;2;2;
69238;PMS5003;56349;51.816;-0.026;2023-07-24T04:23:23;4;4;
69238;PMS5003;56349;51.816;-0.026;2023-07-24T04:25:49;4;2;
69238;PMS5003;56349;51.816;-0.026;2023-07-24T04:28:13;4;3;
69238;PMS5003;56349;51.816;-0.026;2023-07-24T04:30:39;4;4;
69238;PMS5003;56349;51.816;-0.026;2023-07-24T04:33:05;1;1;
69238;PMS5003;56349;51.816;-0.026;2023-07-24T04:35:31;6;4;
69238;PMS5003;56349;51.816;-0.026;2023-07-24T04:37:57;3;3;
69238;PMS5003;56349;51.816;-0.026;2023-07-24T04:40:24;4;4;
69238;PMS5003;56349;51.816;-0.026;2023-07-24T04:42:48;3;3;
69238;PMS5003;56349;51.816;-0.026;2023-07-24T04:45:15;4;4;
69238;PMS5003;56349;51.816;-0.026;2023-07-24T04:47:40;3;3;
69238;PMS5003;56349;51.816;-0.026;2023-07-24T04:50:06;3;2;
69238;PMS5003;56349;51.816;-0.026;2023-07-24T04:52:31;2;2;
69238;PMS5003;56349;51.816;-0.026;2023-07-24T04:54:57;2;2;
69238;PMS5003;56349;51.816;-0.026;2023-07-24T04:57:23;4;3;
69238;PMS5003;56349;51.816;-0.026;2023-07-24T04:59:49;3;3;
69238;PMS5003;56349;51.816;-0.026;2023-07-24T05:02:16;4;4;
69238;PMS5003;56349;51.816;-0.026;2023-07-24T05:04:42;2;2;
69238;PMS5003;56349;51.816;-0.026;2023-07-24T05:07:08;3;3;
69238;PMS5003;56349;51.816;-0.026;2023-07-24T05:09:34;3;3;
69238;PMS5003;56349;51.816;-0.026;2023-07-24T05:11:59;3;3;
69238;PMS5003;56349;51.816;-0.026;2023-07-24T05:14:25;3;2;
69238;PMS5003;56349;51.816;-0.026;2023-07-24T05:16:51;3;3;
69238;PMS5003;56349;51.816;-0.026;2023-07-24T05:19:17;3;3;
69238;PMS5003;56349;51.816;-0.026;2023-07-24T05:21:43;4;3;
69238;PMS5003;56349;51.816;-0.026;2023-07-24T05:24:09;3;3;
69238;PMS5003;56349;51.816;-0.026;2023-07-24T05:26:36;3;3;
69238;PMS5003;56349;51.816;-0.026;2023-07-24T05:29:01;3;3;
69238;PMS5003;56349;51.816;-0.026;2023-07-24T05:31:27;3;3;
69238;PMS5003;56349;51.816;-0.026;2023-07-24T05:33:53;3;3;
69238;PMS5003;56349;51.816;-0.026;2023-07-24T05:36:19;4;3;
69238;PMS5003;56349;51.816;-0.026;2023-07-24T05:38:44;4;4;
69238;PMS5003;56349;51.816;-0.026;2023-07-24T05:41:10;6;3;
69238;PMS5003;56349;51.816;-0.026;2023-07-24T05:43:36;3;3;
69238;PMS5003;56349;51.816;-0.026;2023-07-24T05:46:02;2;2;
69238;PMS5003;56349;51.816;-0.026;2023-07-24T05:48:27;3;3;
69238;PMS5003;56349;51.816;-0.026;2023-07-24T05:50:53;1;1;
69238;PMS5003;56349;51.816;-0.026;2023-07-24T05:53:20;4;3;
69238;PMS5003;56349;51.816;-0.026;2023-07-24T05:55:46;3;3;
69238;PMS5003;56349;51.816;-0.026;2023-07-24T05:58:12;5;3;
69238;PMS5003;56349;51.816;-0.026;2023-07-24T06:00:37;4;3;
69238;PMS5003;56349;51.816;-0.026;2023-07-24T06:03:03;4;3;
69238;PMS5003;56349;51.816;-0.026;2023-07-24T06:05:29;2;2;
69238;PMS5003;56349;51.816;-0.026;2023-07-24T06:07:54;3;3;
69238;PMS5003;56349;51.816;-0.026;2023-07-24T06:10:19;3;3;
69238;PMS5003;56349;51.816;-0.026;2023-07-24T06:12:45;3;3;
69238;PMS5003;56349;51.816;-0.026;2023-07-24T06:15:11;3;3;
69238;PMS5003;56349;51.816;-0.026;2023-07-24T06:17:37;4;3;
69238;PMS5003;56349;51.816;-0.026;2023-07-24T06:20:03;2;2;
69238;PMS5003;56349;51.816;-0.026;2023-07-24T06:22:29;2;2;
69238;PMS5003;56349;51.816;-0.026;2023-07-24T06:24:55;3;3;
69238;PMS5003;56349;51.816;-0.026;2023-07-24T06:27:21;4;3;
69238;PMS5003;56349;51.816;-0.026;2023-07-24T06:29:47;4;3;
69238;PMS5003;56349;51.816;-0.026;2023-07-24T06:32:13;3;2;
69238;PMS5003;56349;51.816;-0.026;2023-07-24T06:34:39;2;2;
69238;PMS5003;56349;51.816;-0.026;2023-07-24T06:37:05;4;4;
69238;PMS5003;56349;51.816;-0.026;2023-07-24T06:39:31;3;2;
69238;PMS5003;56349;51.816;-0.026;2023-07-24T06:41:57;1;1;
69238;PMS5003;56349;51.816;-0.026;2023-07-24T06:44:23;3;3;
69238;PMS5003;56349;51.816;-0.026;2023-07-24T06:46:48;3;3;
69238;PMS5003;56349;51.816;-0.026;2023-07-24T06:49:14;3;3;
69238;PMS5003;56349;51.816;-0.026;2023-07-24T06:51:41;2;2;
69238;PMS5003;56349;51.816;-0.026;2023-07-24T06:54:06;3;3;
69238;PMS5003;56349;51.816;-0.026;2023-07-24T06:56:32;9;9;
69238;PMS5003;56349;51.816;-0.026;2023-07-24T06:58:58;2;2;
69238;PMS5003;56349;51.816;-0.026;2023-07-24T07:01:23;2;2;
69238;PMS5003;56349;51.816;-0.026;2023-07-24T07:03:49;4;4;
69238;PMS5003;56349;51.816;-0.026;2023-07-24T07:06:15;1;1;
69238;PMS5003;56349;51.816;-0.026;2023-07-24T07:08:41;3;3;
69238;PMS5003;56349;51.816;-0.026;2023-07-24T07:11:07;4;2;
69238;PMS5003;56349;51.816;-0.026;2023-07-24T07:13:34;2;1;
69238;PMS5003;56349;51.816;-0.026;2023-07-24T07:15:59;2;2;
69238;PMS5003;56349;51.816;-0.026;2023-07-24T07:18:25;6;4;
69238;PMS5003;56349;51.816;-0.026;2023-07-24T07:20:51;3;3;
69238;PMS5003;56349;51.816;-0.026;2023-07-24T07:23:17;3;3;
69238;PMS5003;56349;51.816;-0.026;2023-07-24T07:25:42;2;2;
69238;PMS5003;56349;51.816;-0.026;2023-07-24T07:28:07;4;4;
69238;PMS5003;56349;51.816;-0.026;2023-07-24T07:30:33;3;3;
69238;PMS5003;56349;51.816;-0.026;2023-07-24T07:33:00;1;1;
69238;PMS5003;56349;51.816;-0.026;2023-07-24T07:35:26;2;2;
69238;PMS5003;56349;51.816;-0.026;2023-07-24T07:37:51;2;2;
69238;PMS5003;56349;51.816;-0.026;2023-07-24T07:40:16;4;4;
69238;PMS5003;56349;51.816;-0.026;2023-07-24T07:45:08;2;2;
69238;PMS5003;56349;51.816;-0.026;2023-07-24T07:47:33;4;4;
69238;PMS5003;56349;51.816;-0.026;2023-07-24T07:49:59;3;3;
69238;PMS5003;56349;51.816;-0.026;2023-07-24T07:52:25;2;2;
69238;PMS5003;56349;51.816;-0.026;2023-07-24T07:54:50;3;2;
69238;PMS5003;56349;51.816;-0.026;2023-07-24T07:57:16;2;2;
69238;PMS5003;56349;51.816;-0.026;2023-07-24T07:59:42;2;2;
69238;PMS5003;56349;51.816;-0.026;2023-07-24T08:02:08;3;2;
69238;PMS5003;56349;51.816;-0.026;2023-07-24T08:04:34;1;1;
69238;PMS5003;56349;51.816;-0.026;2023-07-24T08:06:59;4;3;
69238;PMS5003;56349;51.816;-0.026;2023-07-24T08:09:25;3;2;
69238;PMS5003;56349;51.816;-0.026;2023-07-24T08:11:51;3;3;
69238;PMS5003;56349;51.816;-0.026;2023-07-24T08:14:17;2;2;
69238;PMS5003;56349;51.816;-0.026;2023-07-24T08:16:43;3;3;
69238;PMS5003;56349;51.816;-0.026;2023-07-24T08:19:09;2;2;
69238;PMS5003;56349;51.816;-0.026;2023-07-24T08:21:34;3;3;
69238;PMS5003;56349;51.816;-0.026;2023-07-24T08:23:59;2;2;
69238;PMS5003;56349;51.816;-0.026;2023-07-24T08:26:25;3;3;
69238;PMS5003;56349;51.816;-0.026;2023-07-24T08:28:51;3;3;
69238;PMS5003;56349;51.816;-0.026;2023-07-24T08:31:17;2;2;
69238;PMS5003;56349;51.816;-0.026;2023-07-24T08:33:43;3;3;
69238;PMS5003;56349;51.816;-0.026;2023-07-24T08:36:09;2;2;
69238;PMS5003;56349;51.816;-0.026;2023-07-24T08:38:34;2;2;
69238;PMS5003;56349;51.816;-0.026;2023-07-24T08:41:00;3;3;
69238;PMS5003;56349;51.816;-0.026;2023-07-24T08:43:26;2;2;
69238;PMS5003;56349;51.816;-0.026;2023-07-24T08:45:51;3;2;
69238;PMS5003;56349;51.816;-0.026;2023-07-24T08:48:17;2;2;
69238;PMS5003;56349;51.816;-0.026;2023-07-24T08:50:42;2;2;
69238;PMS5003;56349;51.816;-0.026;2023-07-24T08:53:07;2;2;
69238;PMS5003;56349;51.816;-0.026;2023-07-24T08:55:32;3;2;
69238;PMS5003;56349;51.816;-0.026;2023-07-24T08:57:57;3;2;
69238;PMS5003;56349;51.816;-0.026;2023-07-24T09:00:23;1;1;
69238;PMS5003;56349;51.816;-0.026;2023-07-24T09:02:49;3;2;
69238;PMS5003;56349;51.816;-0.026;2023-07-24T09:05:15;3;3;
69238;PMS5003;56349;51.816;-0.026;2023-07-24T09:07:42;3;3;
69238;PMS5003;56349;51.816;-0.026;2023-07-24T09:10:07;2;2;
69238;PMS5003;56349;51.816;-0.026;2023-07-24T09:12:32;1;0;
69238;PMS5003;56349;51.816;-0.026;2023-07-24T09:15:02;2;2;
69238;PMS5003;56349;51.816;-0.026;2023-07-24T09:17:24;2;2;
69238;PMS5003;56349;51.816;-0.026;2023-07-24T09:19:55;2;2;
69238;PMS5003;56349;51.816;-0.026;2023-07-24T09:22:16;3;3;
69238;PMS5003;56349;51.816;-0.026;2023-07-24T09:27:06;2;2;
69238;PMS5003;56349;51.816;-0.026;2023-07-24T09:29:31;1;1;
69238;PMS5003;56349;51.816;-0.026;2023-07-24T09:31:56;4;4;
69238;PMS5003;56349;51.816;-0.026;2023-07-24T09:34:22;3;3;
69238;PMS5003;56349;51.816;-0.026;2023-07-24T09:36:47;3;3;
69238;PMS5003;56349;51.816;-0.026;2023-07-24T09:39:13;2;2;
69238;PMS5003;56349;51.816;-0.026;2023-07-24T09:41:40;2;2;
69238;PMS5003;56349;51.816;-0.026;2023-07-24T09:44:06;3;3;
69238;PMS5003;56349;51.816;-0.026;2023-07-24T09:46:31;1;1;
69238;PMS5003;56349;51.816;-0.026;2023-07-24T09:48:56;2;2;
69238;PMS5003;56349;51.816;-0.026;2023-07-24T09:51:21;3;3;
69238;PMS5003;56349;51.816;-0.026;2023-07-24T09:53:49;3;3;
69238;PMS5003;56349;51.816;-0.026;2023-07-24T09:56:12;4;4;
69238;PMS5003;56349;51.816;-0.026;2023-07-24T09:58:38;2;2;
69238;PMS5003;56349;51.816;-0.026;2023-07-24T10:01:03;2;2;
69238;PMS5003;56349;51.816;-0.026;2023-07-24T10:03:28;0;0;
69238;PMS5003;56349;51.816;-0.026;2023-07-24T10:05:54;3;3;
69238;PMS5003;56349;51.816;-0.026;2023-07-24T10:08:20;3;3;
69238;PMS5003;56349;51.816;-0.026;2023-07-24T10:10:45;2;2;
69238;PMS5003;56349;51.816;-0.026;2023-07-24T10:13:11;2;2;
69238;PMS5003;56349;51.816;-0.026;2023-07-24T10:15:36;3;2;
69238;PMS5003;56349;51.816;-0.026;2023-07-24T10:18:02;3;3;
69238;PMS5003;56349;51.816;-0.026;2023-07-24T10:20:32;2;2;
69238;PMS5003;56349;51.816;-0.026;2023-07-24T10:22:52;2;2;
69238;PMS5003;56349;51.816;-0.026;2023-07-24T10:25:18;5;4;
69238;PMS5003;56349;51.816;-0.026;2023-07-24T10:27:44;2;2;
69238;PMS5003;56349;51.816;-0.026;2023-07-24T10:30:10;1;1;
69238;PMS5003;56349;51.816;-0.026;2023-07-24T10:35:06;1;1;
69238;PMS5003;56349;51.816;-0.026;2023-07-24T10:37:31;3;3;
69238;PMS5003;56349;51.816;-0.026;2023-07-24T10:39:53;1;1;
69238;PMS5003;56349;51.816;-0.026;2023-07-24T10:42:22;3;2;
69238;PMS5003;56349;51.816;-0.026;2023-07-24T10:44:44;2;2;
69238;PMS5003;56349;51.816;-0.026;2023-07-24T10:47:10;3;3;
69238;PMS5003;56349;51.816;-0.026;2023-07-24T10:49:36;2;1;
69238;PMS5003;56349;51.816;-0.026;2023-07-24T10:52:03;2;2;
69238;PMS5003;56349;51.816;-0.026;2023-07-24T10:54:28;3;3;
69238;PMS5003;56349;51.816;-0.026;2023-07-24T10:56:58;2;2;
69238;PMS5003;56349;51.816;-0.026;2023-07-24T10:59:19;3;2;
69238;PMS5003;56349;51.816;-0.026;2023-07-24T11:01:45;2;1;
69238;PMS5003;56349;51.816;-0.026;2023-07-24T11:04:12;2;2;
69238;PMS5003;56349;51.816;-0.026;2023-07-24T11:06:37;3;3;
69238;PMS5003;56349;51.816;-0.026;2023-07-24T11:09:03;1;1;
69238;PMS5003;56349;51.816;-0.026;2023-07-24T11:11:29;2;1;
69238;PMS5003;56349;51.816;-0.026;2023-07-24T11:13:54;0;0;
69238;PMS5003;56349;51.816;-0.026;2023-07-24T11:16:19;2;2;
69238;PMS5003;56349;51.816;-0.026;2023-07-24T11:18:46;2;2;
69238;PMS5003;56349;51.816;-0.026;2023-07-24T11:21:12;1;1;
69238;PMS5003;56349;51.816;-0.026;2023-07-24T11:23:37;2;2;
69238;PMS5003;56349;51.816;-0.026;2023-07-24T11:26:04;2;2;
69238;PMS5003;56349;51.816;-0.026;2023-07-24T11:28:29;2;2;
69238;PMS5003;56349;51.816;-0.026;2023-07-24T11:30:55;3;3;
69238;PMS5003;56349;51.816;-0.026;2023-07-24T11:33:20;1;1;
69238;PMS5003;56349;51.816;-0.026;2023-07-24T11:35:45;1;1;
69238;PMS5003;56349;51.816;-0.026;2023-07-24T11:38:10;3;2;
69238;PMS5003;56349;51.816;-0.026;2023-07-24T11:40:37;2;2;
69238;PMS5003;56349;51.816;-0.026;2023-07-24T11:43:02;1;1;
69238;PMS5003;56349;51.816;-0.026;2023-07-24T11:45:28;3;3;
69238;PMS5003;56349;51.816;-0.026;2023-07-24T11:47:53;2;2;
69238;PMS5003;56349;51.816;-0.026;2023-07-24T11:50:19;2;2;
69238;PMS5003;56349;51.816;-0.026;2023-07-24T11:52:46;2;2;
69238;PMS5003;56349;51.816;-0.026;2023-07-24T11:55:11;2;2;
69238;PMS5003;56349;51.816;-0.026;2023-07-24T11:57:36;2;2;
69238;PMS5003;56349;51.816;-0.026;2023-07-24T12:00:02;2;2;
69238;PMS5003;56349;51.816;-0.026;2023-07-24T12:02:28;2;2;
69238;PMS5003;56349;51.816;-0.026;2023-07-24T12:04:56;2;2;
69238;PMS5003;56349;51.816;-0.026;2023-07-24T12:07:19;2;2;
69238;PMS5003;56349;51.816;-0.026;2023-07-24T12:09:50;3;3;
69238;PMS5003;56349;51.816;-0.026;2023-07-24T12:12:10;2;2;
69238;PMS5003;56349;51.816;-0.026;2023-07-24T12:14:36;2;2;
69238;PMS5003;56349;51.816;-0.026;2023-07-24T12:17:01;3;3;
69238;PMS5003;56349;51.816;-0.026;2023-07-24T12:19:27;2;2;
69238;PMS5003;56349;51.816;-0.026;2023-07-24T12:21:53;2;1;
69238;PMS5003;56349;51.816;-0.026;2023-07-24T12:24:19;2;2;
69238;PMS5003;56349;51.816;-0.026;2023-07-24T12:26:45;1;1;
69238;PMS5003;56349;51.816;-0.026;2023-07-24T12:29:11;0;0;
69238;PMS5003;56349;51.816;-0.026;2023-07-24T12:31:37;0;0;
69238;PMS5003;56349;51.816;-0.026;2023-07-24T12:34:04;2;2;
69238;PMS5003;56349;51.816;-0.026;2023-07-24T12:36:29;3;3;
69238;PMS5003;56349;51.816;-0.026;2023-07-24T12:38:55;1;0;
69238;PMS5003;56349;51.816;-0.026;2023-07-24T12:41:21;1;1;
69238;PMS5003;56349;51.816;-0.026;2023-07-24T12:43:47;2;2;
69238;PMS5003;56349;51.816;-0.026;2023-07-24T12:46:12;1;1;
69238;PMS5003;56349;51.816;-0.026;2023-07-24T12:48:38;2;2;
69238;PMS5003;56349;51.816;-0.026;2023-07-24T12:51:04;2;1;
69238;PMS5003;56349;51.816;-0.026;2023-07-24T12:53:30;2;2;
69238;PMS5003;56349;51.816;-0.026;2023-07-24T12:55:57;2;2;
69238;PMS5003;56349;51.816;-0.026;2023-07-24T12:58:22;2;2;
69238;PMS5003;56349;51.816;-0.026;2023-07-24T13:00:48;3;3;
69238;PMS5003;56349;51.816;-0.026;2023-07-24T13:03:14;1;1;
69238;PMS5003;56349;51.816;-0.026;2023-07-24T13:05:40;1;1;
69238;PMS5003;56349;51.816;-0.026;2023-07-24T13:08:06;1;1;
69238;PMS5003;56349;51.816;-0.026;2023-07-24T13:10:32;1;1;
69238;PMS5003;56349;51.816;-0.026;2023-07-24T13:12:57;2;1;
69238;PMS5003;56349;51.816;-0.026;2023-07-24T13:15:26;1;1;
69238;PMS5003;56349;51.816;-0.026;2023-07-24T13:17:48;2;2;
69238;PMS5003;56349;51.816;-0.026;2023-07-24T13:20:14;2;2;
69238;PMS5003;56349;51.816;-0.026;2023-07-24T13:22:40;1;1;
69238;PMS5003;56349;51.816;-0.026;2023-07-24T13:25:05;2;2;
69238;PMS5003;56349;51.816;-0.026;2023-07-24T13:27:31;1;1;
69238;PMS5003;56349;51.816;-0.026;2023-07-24T13:29:56;2;2;
69238;PMS5003;56349;51.816;-0.026;2023-07-24T13:32:22;2;2;
69238;PMS5003;56349;51.816;-0.026;2023-07-24T13:34:48;3;1;
69238;PMS5003;56349;51.816;-0.026;2023-07-24T13:37:14;2;2;
69238;PMS5003;56349;51.816;-0.026;2023-07-24T13:39:40;1;1;
69238;PMS5003;56349;51.816;-0.026;2023-07-24T13:42:06;2;2;
69238;PMS5003;56349;51.816;-0.026;2023-07-24T13:44:31;1;1;
69238;PMS5003;56349;51.816;-0.026;2023-07-24T13:46:57;1;1;
69238;PMS5003;56349;51.816;-0.026;2023-07-24T13:49:23;3;3;
69238;PMS5003;56349;51.816;-0.026;2023-07-24T13:51:49;1;0;
69238;PMS5003;56349;51.816;-0.026;2023-07-24T13:54:15;4;2;
69238;PMS5003;56349;51.816;-0.026;2023-07-24T13:56:41;2;2;
69238;PMS5003;56349;51.816;-0.026;2023-07-24T13:59:06;2;1;
69238;PMS5003;56349;51.816;-0.026;2023-07-24T14:01:32;2;2;
69238;PMS5003;56349;51.816;-0.026;2023-07-24T14:03:57;1;1;
69238;PMS5003;56349;51.816;-0.026;2023-07-24T14:06:22;2;2;
69238;PMS5003;56349;51.816;-0.026;2023-07-24T14:08:47;1;1;
69238;PMS5003;56349;51.816;-0.026;2023-07-24T14:11:14;2;2;
69238;PMS5003;56349;51.816;-0.026;2023-07-24T14:13:40;1;1;
69238;PMS5003;56349;51.816;-0.026;2023-07-24T14:16:05;0;0;
69238;PMS5003;56349;51.816;-0.026;2023-07-24T14:18:30;2;2;
69238;PMS5003;56349;51.816;-0.026;2023-07-24T14:20:56;2;2;
69238;PMS5003;56349;51.816;-0.026;2023-07-24T14:23:21;1;1;
69238;PMS5003;56349;51.816;-0.026;2023-07-24T14:25:49;1;1;
69238;PMS5003;56349;51.816;-0.026;2023-07-24T14:28:13;2;2;
69238;PMS5003;56349;51.816;-0.026;2023-07-24T14:30:39;2;2;
69238;PMS5003;56349;51.816;-0.026;2023-07-24T14:33:04;1;0;
69238;PMS5003;56349;51.816;-0.026;2023-07-24T14:35:30;1;1;
69238;PMS5003;56349;51.816;-0.026;2023-07-24T14:37:58;1;1;
69238;PMS5003;56349;51.816;-0.026;2023-07-24T14:40:22;0;0;
69238;PMS5003;56349;51.816;-0.026;2023-07-24T14:42:47;2;2;
69238;PMS5003;56349;51.816;-0.026;2023-07-24T14:45:12;1;1;
69238;PMS5003;56349;51.816;-0.026;2023-07-24T14:47:38;3;2;
69238;PMS5003;56349;51.816;-0.026;2023-07-24T14:50:05;1;1;
69238;PMS5003;56349;51.816;-0.026;2023-07-24T14:52:31;0;0;
69238;PMS5003;56349;51.816;-0.026;2023-07-24T14:54:57;2;1;
69238;PMS5003;56349;51.816;-0.026;2023-07-24T14:57:23;0;0;
69238;PMS5003;56349;51.816;-0.026;2023-07-24T14:59:48;1;1;
69238;PMS5003;56349;51.816;-0.026;2023-07-24T15:02:14;0;0;
69238;PMS5003;56349;51.816;-0.026;2023-07-24T15:04:40;0;0;
69238;PMS5003;56349;51.816;-0.026;2023-07-24T15:07:06;0;0;
69238;PMS5003;56349;51.816;-0.026;2023-07-24T15:09:32;2;2;
69238;PMS5003;56349;51.816;-0.026;2023-07-24T15:11:59;0;0;
69238;PMS5003;56349;51.816;-0.026;2023-07-24T15:14:25;0;0;
69238;PMS5003;56349;51.816;-0.026;2023-07-24T15:16:50;0;0;
69238;PMS5003;56349;51.816;-0.026;2023-07-24T15:19:17;2;2;
69238;PMS5003;56349;51.816;-0.026;2023-07-24T15:21:43;0;0;
69238;PMS5003;56349;51.816;-0.026;2023-07-24T15:24:09;0;0;
69238;PMS5003;56349;51.816;-0.026;2023-07-24T15:26:34;1;0;
69238;PMS5003;56349;51.816;-0.026;2023-07-24T15:29:00;0;0;
69238;PMS5003;56349;51.816;-0.026;2023-07-24T15:31:26;0;0;
69238;PMS5003;56349;51.816;-0.026;2023-07-24T15:33:52;0;0;
69238;PMS5003;56349;51.816;-0.026;2023-07-24T15:36:18;1;1;
69238;PMS5003;56349;51.816;-0.026;2023-07-24T15:38:43;0;0;
69238;PMS5003;56349;51.816;-0.026;2023-07-24T15:41:09;0;0;
69238;PMS5003;56349;51.816;-0.026;2023-07-24T15:43:35;0;0;
69238;PMS5003;56349;51.816;-0.026;2023-07-24T15:46:01;0;0;
69238;PMS5003;56349;51.816;-0.026;2023-07-24T15:48:27;0;0;
69238;PMS5003;56349;51.816;-0.026;2023-07-24T15:50:52;0;0;
69238;PMS5003;56349;51.816;-0.026;2023-07-24T15:53:18;0;0;
69238;PMS5003;56349;51.816;-0.026;2023-07-24T15:55:45;0;0;
69238;PMS5003;56349;51.816;-0.026;2023-07-24T15:58:10;0;0;
69238;PMS5003;56349;51.816;-0.026;2023-07-24T16:00:36;0;0;
69238;PMS5003;56349;51.816;-0.026;2023-07-24T16:03:02;0;0;
69238;PMS5003;56349;51.816;-0.026;2023-07-24T16:05:28;0;0;
69238;PMS5003;56349;51.816;-0.026;2023-07-24T16:07:54;0;0;
69238;PMS5003;56349;51.816;-0.026;2023-07-24T16:10:20;0;0;
69238;PMS5003;56349;51.816;-0.026;2023-07-24T16:12:45;1;1;
69238;PMS5003;56349;51.816;-0.026;2023-07-24T16:15:11;0;0;
69238;PMS5003;56349;51.816;-0.026;2023-07-24T16:17:37;0;0;
69238;PMS5003;56349;51.816;-0.026;2023-07-24T16:20:04;0;0;
69238;PMS5003;56349;51.816;-0.026;2023-07-24T16:22:28;0;0;
69238;PMS5003;56349;51.816;-0.026;2023-07-24T16:24:53;0;0;
69238;PMS5003;56349;51.816;-0.026;2023-07-24T16:27:18;0;0;
69238;PMS5003;56349;51.816;-0.026;2023-07-24T16:29:45;0;0;
69238;PMS5003;56349;51.816;-0.026;2023-07-24T16:32:11;1;0;